Time;durP1;ratioP1;P1;durP2;ratioP2;P2;SDS_P1;SDS_P2;PMS_P1;PMS_P2;Temp;Humidity;BMP_temperature;BMP_pressure;BME280_temperature;BME280_humidity;BME280_pressure;Samples;Min_cycle;Max_cycle;Signal;HPM_P1;HPM_P2
2023/02/17 00:01:57;;;;;;;21.37;18.43;;;12.10;99.90;;;;;;4992229;28;20454;-63
2023/02/17 00:04:23;;;;;;;20.70;18.27;;;12.10;99.90;;;;;;4989795;28;20438;-60
2023/02/17 00:06:49;;;;;;;19.67;17.57;;;12.10;99.90;;;;;;4992734;28;20235;-60
2023/02/17 00:09:15;;;;;;;21.67;19.37;;;12.10;99.90;;;;;;4977673;28;20530;-60
2023/02/17 00:11:41;;;;;;;22.33;19.90;;;12.10;99.90;;;;;;4996231;28;20687;-59
2023/02/17 00:14:08;;;;;;;22.87;18.50;;;12.20;99.90;;;;;;4994336;28;20605;-60
2023/02/17 00:16:33;;;;;;;19.83;17.60;;;12.20;99.90;;;;;;4994999;28;20186;-60
2023/02/17 00:19:00;;;;;;;19.77;16.93;;;12.30;99.90;;;;;;4996246;28;20813;-64
2023/02/17 00:21:31;;;;;;;17.80;15.97;;;12.20;99.90;;;;;;4994695;28;20204;-60
2023/02/17 00:23:58;;;;;;;20.53;17.37;;;12.20;99.90;;;;;;4996330;28;20407;-60
2023/02/17 00:26:23;;;;;;;18.77;16.73;;;12.20;99.90;;;;;;4957938;28;20482;-60
2023/02/17 00:28:49;;;;;;;18.20;16.30;;;12.20;99.90;;;;;;4985606;28;20469;-60
2023/02/17 00:31:20;;;;;;;18.60;16.60;;;12.20;99.90;;;;;;4993282;28;20651;-60
2023/02/17 00:33:47;;;;;;;20.33;16.80;;;12.20;99.90;;;;;;4996211;28;20168;-60
2023/02/17 00:36:18;;;;;;;18.67;16.93;;;12.20;99.90;;;;;;4995276;28;20446;-59
2023/02/17 00:38:45;;;;;;;19.57;16.80;;;12.20;99.90;;;;;;4995318;28;20427;-60
2023/02/17 00:41:11;;;;;;;21.70;16.37;;;12.30;99.90;;;;;;4994973;28;20470;-59
2023/02/17 00:43:36;;;;;;;18.00;16.03;;;12.30;99.90;;;;;;4995677;28;20478;-59
2023/02/17 00:46:02;;;;;;;17.93;16.00;;;12.30;99.90;;;;;;4978018;28;20569;-63
2023/02/17 00:48:29;;;;;;;18.40;16.50;;;12.30;99.90;;;;;;4995976;28;20603;-59
2023/02/17 00:50:55;;;;;;;19.47;15.70;;;12.30;99.90;;;;;;4995147;28;20448;-59
2023/02/17 00:53:21;;;;;;;19.13;14.87;;;12.20;99.90;;;;;;4995054;28;20418;-59
2023/02/17 00:55:47;;;;;;;19.13;15.07;;;12.20;99.90;;;;;;4995179;28;20194;-59
2023/02/17 00:58:13;;;;;;;17.40;14.57;;;12.20;99.90;;;;;;4994930;28;20263;-59
2023/02/17 01:00:39;;;;;;;17.27;14.43;;;12.40;99.90;;;;;;4995585;28;20456;-59
2023/02/17 01:03:04;;;;;;;18.57;16.40;;;12.30;99.90;;;;;;4994771;28;20417;-63
2023/02/17 01:05:30;;;;;;;16.30;14.60;;;12.20;99.90;;;;;;4994717;28;20213;-59
2023/02/17 01:07:56;;;;;;;17.17;15.47;;;12.20;99.90;;;;;;4994801;28;20435;-59
2023/02/17 01:10:22;;;;;;;20.80;16.33;;;12.30;99.90;;;;;;4994674;28;20485;-59
2023/02/17 01:12:48;;;;;;;16.37;14.70;;;12.20;99.90;;;;;;4995499;28;20818;-60
2023/02/17 01:15:13;;;;;;;18.20;16.37;;;12.30;99.90;;;;;;4984313;28;20191;-60
2023/02/17 01:17:39;;;;;;;19.43;15.80;;;12.20;99.90;;;;;;4975420;28;20178;-59
2023/02/17 01:20:06;;;;;;;18.23;15.90;;;12.20;99.90;;;;;;4983021;28;20279;-63
2023/02/17 01:22:32;;;;;;;16.50;14.87;;;12.20;99.90;;;;;;4995212;28;20188;-59
2023/02/17 01:24:58;;;;;;;18.47;16.10;;;12.20;99.90;;;;;;4994989;28;20871;-59
2023/02/17 01:27:23;;;;;;;19.20;15.93;;;12.30;99.90;;;;;;4994378;28;20413;-59
2023/02/17 01:29:49;;;;;;;16.97;15.20;;;12.20;99.90;;;;;;4995154;28;20179;-59
2023/02/17 01:32:15;;;;;;;15.87;14.30;;;12.20;99.90;;;;;;4994056;28;20195;-60
2023/02/17 01:34:41;;;;;;;16.60;14.73;;;12.30;99.90;;;;;;4995114;28;20655;-59
2023/02/17 01:37:08;;;;;;;18.67;14.20;;;12.30;99.90;;;;;;4993336;28;20186;-63
2023/02/17 01:39:34;;;;;;;17.90;16.00;;;12.40;99.90;;;;;;4994233;28;20189;-59
2023/02/17 01:42:00;;;;;;;17.73;15.10;;;12.40;99.90;;;;;;4975325;28;20501;-59
2023/02/17 01:44:26;;;;;;;18.20;15.37;;;12.40;99.90;;;;;;4976140;28;20424;-59
2023/02/17 01:46:53;;;;;;;16.30;14.70;;;12.40;99.90;;;;;;4995057;28;20209;-59
2023/02/17 01:49:31;;;;;;;17.03;14.80;;;12.50;99.90;;;;;;4994011;28;20171;-59
2023/02/17 01:52:11;;;;;;;14.63;13.20;;;12.30;99.90;;;;;;4994518;28;20415;-59
2023/02/17 01:54:42;;;;;;;15.10;13.60;;;12.40;99.90;;;;;;4994819;28;20399;-59
2023/02/17 01:57:09;;;;;;;15.30;13.70;;;12.40;99.90;;;;;;4992465;28;20460;-63
2023/02/17 01:59:35;;;;;;;16.37;13.73;;;12.30;99.90;;;;;;4994621;28;20425;-59
2023/02/17 02:02:04;;;;;;;15.37;13.80;;;12.40;99.90;;;;;;4994541;28;20874;-59
2023/02/17 02:04:33;;;;;;;16.20;14.50;;;12.30;99.90;;;;;;4993798;28;20423;-59
2023/02/17 02:06:59;;;;;;;16.37;14.63;;;12.30;99.90;;;;;;4994431;28;20413;-59
2023/02/17 02:09:35;;;;;;;15.33;13.83;;;12.30;99.90;;;;;;4992751;28;20569;-59
2023/02/17 02:12:01;;;;;;;15.30;13.83;;;12.30;99.90;;;;;;4976503;28;20469;-59
2023/02/17 02:14:27;;;;;;;17.57;14.00;;;12.40;99.90;;;;;;4993517;28;20466;-59
2023/02/17 02:17:08;;;;;;;14.93;13.47;;;12.40;99.90;;;;;;4993515;28;20183;-59
2023/02/17 02:19:54;;;;;;;15.23;13.73;;;12.50;99.90;;;;;;4993239;28;20483;-59
2023/02/17 02:22:40;;;;;;;15.87;14.33;;;12.50;99.90;;;;;;4993312;28;20549;-59
2023/02/17 02:25:28;;;;;;;14.80;13.40;;;12.40;99.90;;;;;;4992479;28;20509;-59
2023/02/17 02:28:24;;;;;;;15.73;14.13;;;12.40;99.90;;;;;;4960688;28;20422;-59
2023/02/17 02:31:06;;;;;;;14.87;13.37;;;12.40;99.90;;;;;;4975163;28;20939;-59
2023/02/17 02:33:50;;;;;;;15.00;13.40;;;12.40;99.90;;;;;;4975270;28;20440;-59
2023/02/17 02:36:27;;;;;;;15.30;13.80;;;12.40;99.90;;;;;;4993149;28;20413;-59
2023/02/17 02:39:03;;;;;;;14.80;12.70;;;12.30;99.90;;;;;;4993862;28;20441;-59
2023/02/17 02:41:45;;;;;;;15.67;14.07;;;12.20;99.90;;;;;;4992280;28;20897;-59
2023/02/17 02:44:16;;;;;;;16.70;14.57;;;12.30;99.90;;;;;;4993160;28;20408;-59
2023/02/17 02:46:42;;;;;;;15.67;14.20;;;12.30;99.90;;;;;;4993064;28;20426;-59
2023/02/17 02:49:08;;;;;;;15.93;14.43;;;12.40;99.90;;;;;;4992831;28;20993;-63
2023/02/17 02:51:52;;;;;;;16.43;14.77;;;12.30;99.90;;;;;;4992454;28;20195;-59
2023/02/17 02:54:26;;;;;;;16.40;14.80;;;12.30;99.90;;;;;;4992226;28;20450;-59
2023/02/17 02:56:58;;;;;;;16.10;14.27;;;12.30;99.90;;;;;;4993422;28;20411;-59
2023/02/17 02:59:56;;;;;;;16.07;14.37;;;12.30;99.90;;;;;;4992292;28;20436;-59
2023/02/17 03:02:47;;;;;;;16.37;14.73;;;12.40;99.90;;;;;;4992649;28;20798;-60
2023/02/17 03:05:29;;;;;;;16.20;14.70;;;12.40;99.90;;;;;;4991896;28;20419;-63
2023/02/17 03:08:05;;;;;;;15.43;14.00;;;12.30;99.90;;;;;;4993637;28;20431;-59
2023/02/17 03:10:31;;;;;;;15.00;13.60;;;12.30;99.90;;;;;;4990771;28;20403;-61
2023/02/17 03:12:57;;;;;;;14.87;13.43;;;12.40;99.90;;;;;;4973864;28;20765;-60
2023/02/17 03:15:29;;;;;;;14.30;12.90;;;12.30;99.90;;;;;;4956504;28;20694;-59
2023/02/17 03:17:59;;;;;;;14.33;12.90;;;12.40;99.90;;;;;;4973961;28;20579;-59
2023/02/17 03:20:28;;;;;;;13.90;12.70;;;12.40;99.90;;;;;;4972880;28;20420;-60
2023/02/17 03:22:54;;;;;;;13.97;12.47;;;12.40;99.90;;;;;;4978077;28;20446;-60
2023/02/17 03:25:20;;;;;;;14.27;12.90;;;12.30;99.90;;;;;;4992145;28;20414;-60
2023/02/17 03:27:46;;;;;;;14.23;12.90;;;12.40;99.90;;;;;;4993363;28;20425;-59
2023/02/17 03:30:12;;;;;;;14.93;13.30;;;12.40;99.90;;;;;;4992680;28;20418;-64
2023/02/17 03:32:38;;;;;;;15.13;13.63;;;12.50;99.90;;;;;;4991928;28;20283;-59
2023/02/17 03:35:04;;;;;;;13.87;12.53;;;12.60;99.90;;;;;;4992915;28;20853;-60
2023/02/17 03:37:30;;;;;;;14.60;13.30;;;12.60;99.90;;;;;;4991512;28;21026;-59
2023/02/17 03:39:56;;;;;;;15.23;13.53;;;12.50;99.90;;;;;;4992689;28;20419;-59
2023/02/17 03:42:22;;;;;;;13.90;12.50;;;12.60;99.90;;;;;;4991986;28;20480;-59
2023/02/17 03:44:47;;;;;;;14.13;12.77;;;12.60;99.90;;;;;;4992492;28;20543;-59
2023/02/17 03:47:13;;;;;;;14.20;11.77;;;12.60;99.90;;;;;;4992494;28;20412;-63
2023/02/17 03:49:39;;;;;;;13.70;12.40;;;12.60;99.90;;;;;;4974271;28;20539;-59
2023/02/17 03:52:04;;;;;;;12.83;11.70;;;12.60;99.90;;;;;;4992954;28;20185;-59
2023/02/17 03:54:30;;;;;;;13.30;12.00;;;12.60;99.90;;;;;;4992046;28;20184;-59
2023/02/17 03:56:57;;;;;;;12.63;11.40;;;12.70;99.90;;;;;;4974782;28;20207;-59
2023/02/17 03:59:23;;;;;;;13.93;12.63;;;12.60;99.90;;;;;;4992139;28;20179;-60
2023/02/17 04:01:49;;;;;;;13.13;11.83;;;12.60;99.90;;;;;;4991984;28;20508;-60
2023/02/17 04:04:15;;;;;;;12.20;11.17;;;12.70;99.90;;;;;;4991186;28;20930;-63
2023/02/17 04:06:40;;;;;;;12.60;11.50;;;12.70;99.90;;;;;;4992254;28;20188;-59
2023/02/17 04:09:06;;;;;;;12.97;11.87;;;12.70;99.90;;;;;;4992676;28;20179;-59
2023/02/17 04:11:32;;;;;;;12.30;11.20;;;12.60;99.90;;;;;;4991641;28;20224;-59
2023/02/17 04:13:57;;;;;;;13.30;11.90;;;12.60;99.90;;;;;;4991665;28;20257;-60
2023/02/17 04:16:23;;;;;;;12.97;11.67;;;12.60;99.90;;;;;;4991847;28;20560;-60
2023/02/17 04:18:49;;;;;;;12.60;11.50;;;12.60;99.90;;;;;;4992594;28;20259;-59
2023/02/17 04:21:14;;;;;;;13.70;12.50;;;12.70;99.90;;;;;;4991860;28;20675;-64
2023/02/17 04:23:40;;;;;;;13.37;12.07;;;12.70;99.90;;;;;;4992459;28;20180;-59
2023/02/17 04:26:07;;;;;;;12.83;11.73;;;12.80;99.90;;;;;;4991717;28;20280;-59
2023/02/17 04:28:33;;;;;;;14.50;13.00;;;12.80;99.90;;;;;;4990902;28;20179;-59
2023/02/17 04:30:59;;;;;;;12.60;11.50;;;12.70;99.90;;;;;;4991802;28;20846;-59
2023/02/17 04:33:25;;;;;;;11.50;10.47;;;12.70;99.90;;;;;;4991664;28;20554;-59
2023/02/17 04:35:58;;;;;;;14.37;11.53;;;12.70;99.90;;;;;;4992376;28;20198;-59
2023/02/17 04:38:27;;;;;;;12.33;11.03;;;12.80;99.90;;;;;;4990859;28;20512;-59
2023/02/17 04:40:57;;;;;;;12.00;10.80;;;12.80;99.90;;;;;;4992062;28;20943;-59
2023/02/17 04:43:24;;;;;;;13.27;12.07;;;12.80;99.90;;;;;;4991566;28;20425;-60
2023/02/17 04:45:51;;;;;;;12.90;11.60;;;12.80;99.90;;;;;;4974978;28;20468;-59
2023/02/17 04:48:18;;;;;;;11.43;10.40;;;12.80;99.90;;;;;;4990941;28;20440;-63
2023/02/17 04:50:43;;;;;;;14.77;13.63;;;12.80;99.90;;;;;;4991381;28;20441;-59
2023/02/17 04:53:09;;;;;;;14.50;13.20;;;12.80;99.90;;;;;;4993184;28;20420;-59
2023/02/17 04:55:35;;;;;;;12.87;11.57;;;12.80;99.90;;;;;;4995008;28;20538;-59
2023/02/17 04:58:01;;;;;;;14.50;13.27;;;12.90;99.90;;;;;;4994235;28;20437;-59
2023/02/17 05:00:26;;;;;;;13.07;11.87;;;12.80;99.90;;;;;;4992600;28;20578;-59
2023/02/17 05:02:52;;;;;;;12.73;11.50;;;12.90;99.90;;;;;;4992917;28;20191;-59
2023/02/17 05:05:20;;;;;;;13.13;11.60;;;12.90;99.90;;;;;;4995441;28;20185;-62
2023/02/17 05:07:47;;;;;;;13.00;11.60;;;12.80;99.90;;;;;;4995604;28;20195;-59
2023/02/17 05:10:14;;;;;;;12.80;11.60;;;12.80;99.90;;;;;;4995507;28;20415;-59
2023/02/17 05:12:40;;;;;;;12.40;11.10;;;12.80;99.90;;;;;;4994749;28;20476;-59
2023/02/17 05:15:07;;;;;;;15.87;14.47;;;12.70;99.90;;;;;;4995249;28;20462;-60
2023/02/17 05:17:32;;;;;;;13.67;12.47;;;12.70;99.90;;;;;;4993844;28;20224;-59
2023/02/17 05:19:58;;;;;;;10.93;9.80;;;12.70;99.90;;;;;;4994766;28;20448;-59
2023/02/17 05:22:25;;;;;;;12.53;11.23;;;12.70;99.90;;;;;;4994410;28;20202;-60
2023/02/17 05:24:51;;;;;;;14.20;12.90;;;12.80;99.90;;;;;;4995551;28;20466;-59
2023/02/17 05:27:16;;;;;;;13.80;12.47;;;12.90;99.90;;;;;;4993641;28;20451;-61
2023/02/17 05:29:42;;;;;;;11.83;10.63;;;12.80;99.90;;;;;;4994246;28;20213;-60
2023/02/17 05:32:08;;;;;;;11.50;10.43;;;12.90;99.90;;;;;;4995041;28;20183;-60
2023/02/17 05:34:35;;;;;;;12.67;11.47;;;12.80;99.90;;;;;;4991752;28;20647;-59
2023/02/17 05:37:00;;;;;;;12.27;11.00;;;12.90;99.90;;;;;;4993719;28;20180;-59
2023/02/17 05:39:27;;;;;;;11.63;10.43;;;12.90;99.90;;;;;;4994136;28;20468;-60
2023/02/17 05:41:53;;;;;;;12.00;10.80;;;12.80;99.90;;;;;;4995015;28;20225;-60
2023/02/17 05:44:19;;;;;;;12.50;11.40;;;12.80;99.90;;;;;;4994779;28;20916;-63
2023/02/17 05:46:45;;;;;;;13.20;11.93;;;12.80;99.90;;;;;;4993930;28;20491;-60
2023/02/17 05:49:10;;;;;;;13.83;12.53;;;12.80;99.90;;;;;;4994536;28;20490;-60
2023/02/17 05:51:36;;;;;;;14.23;12.50;;;12.90;99.90;;;;;;4993089;28;20189;-59
2023/02/17 05:54:02;;;;;;;13.87;10.90;;;12.80;99.90;;;;;;4994691;28;20203;-59
2023/02/17 05:56:28;;;;;;;14.03;12.73;;;12.70;99.90;;;;;;4993876;28;20548;-59
2023/02/17 05:58:54;;;;;;;18.13;13.10;;;12.70;99.90;;;;;;4977212;28;20505;-59
2023/02/17 06:01:20;;;;;;;15.47;13.97;;;12.70;99.90;;;;;;4993191;28;20208;-63
2023/02/17 06:03:46;;;;;;;13.93;12.70;;;12.60;99.90;;;;;;4993260;28;20190;-59
2023/02/17 06:06:11;;;;;;;13.50;12.20;;;12.70;99.90;;;;;;4993664;28;20189;-59
2023/02/17 06:08:38;;;;;;;15.17;13.73;;;12.70;99.90;;;;;;4993614;28;20433;-59
2023/02/17 06:11:04;;;;;;;13.40;12.00;;;12.70;99.90;;;;;;4991882;28;20223;-62
2023/02/17 06:13:29;;;;;;;13.80;12.50;;;12.60;99.90;;;;;;4993533;28;20498;-59
2023/02/17 06:15:55;;;;;;;13.50;12.20;;;12.70;99.90;;;;;;4993223;28;20184;-60
2023/02/17 06:18:21;;;;;;;14.07;12.77;;;12.70;99.90;;;;;;4994218;28;20184;-63
2023/02/17 06:20:47;;;;;;;13.30;12.10;;;12.70;99.90;;;;;;4992405;28;20213;-64
2023/02/17 06:23:12;;;;;;;13.50;12.20;;;12.70;99.90;;;;;;4953446;28;20538;-61
2023/02/17 06:25:38;;;;;;;14.23;12.87;;;12.70;99.90;;;;;;4974065;28;20174;-61
2023/02/17 06:28:04;;;;;;;13.00;11.80;;;12.70;99.90;;;;;;4974595;28;20185;-61
2023/02/17 06:30:30;;;;;;;13.67;12.37;;;12.70;99.90;;;;;;4978032;28;20259;-62
2023/02/17 06:32:57;;;;;;;14.20;13.00;;;12.70;99.90;;;;;;4993701;28;20273;-61
2023/02/17 06:35:22;;;;;;;13.20;11.80;;;12.80;99.90;;;;;;4992472;28;20171;-65
2023/02/17 06:37:48;;;;;;;11.67;10.47;;;12.80;99.90;;;;;;4974465;28;20793;-61
2023/02/17 06:40:14;;;;;;;15.33;14.03;;;12.70;99.90;;;;;;4993806;28;20421;-61
2023/02/17 06:42:40;;;;;;;12.43;11.23;;;12.80;99.90;;;;;;4993140;28;20219;-61
2023/02/17 06:45:06;;;;;;;13.70;12.30;;;12.80;99.90;;;;;;4992174;28;20440;-61
2023/02/17 06:47:34;;;;;;;13.67;12.40;;;12.90;99.90;;;;;;4991983;28;20506;-60
2023/02/17 06:49:59;;;;;;;15.00;13.80;;;12.90;99.90;;;;;;4989018;28;20787;-60
2023/02/17 06:52:25;;;;;;;12.67;11.50;;;13.00;99.90;;;;;;4991887;28;20431;-65
2023/02/17 06:54:51;;;;;;;14.10;12.80;;;12.90;99.90;;;;;;4992980;28;20580;-60
2023/02/17 06:57:17;;;;;;;13.50;12.20;;;12.90;99.90;;;;;;4992104;28;20441;-60
2023/02/17 06:59:43;;;;;;;12.40;11.10;;;12.90;99.90;;;;;;4991856;28;20268;-61
2023/02/17 07:02:13;;;;;;;12.40;11.27;;;12.90;99.90;;;;;;4992338;28;20606;-61
2023/02/17 07:04:39;;;;;;;14.07;12.90;;;12.80;99.90;;;;;;4968186;28;20610;-61
2023/02/17 07:07:06;;;;;;;13.67;12.47;;;12.80;99.90;;;;;;4977967;28;20449;-61
2023/02/17 07:09:32;;;;;;;14.13;12.73;;;12.80;99.90;;;;;;4991180;28;20485;-61
2023/02/17 07:11:57;;;;;;;12.70;11.47;;;12.80;99.90;;;;;;4992937;28;20462;-61
2023/02/17 07:14:24;;;;;;;12.40;11.20;;;12.80;99.90;;;;;;4993078;28;20276;-65
2023/02/17 07:16:50;;;;;;;12.10;11.00;;;12.80;99.90;;;;;;4992257;28;20185;-60
2023/02/17 07:19:16;;;;;;;13.97;12.70;;;12.80;99.90;;;;;;4993191;28;20454;-61
2023/02/17 07:21:42;;;;;;;13.93;12.60;;;12.90;99.90;;;;;;4991504;28;20205;-61
2023/02/17 07:24:08;;;;;;;13.03;11.83;;;13.00;99.90;;;;;;4992699;28;20780;-60
2023/02/17 07:26:38;;;;;;;12.53;11.33;;;12.90;99.90;;;;;;4992308;28;20498;-61
2023/02/17 07:29:06;;;;;;;11.70;10.53;;;12.80;99.90;;;;;;4993193;28;20400;-60
2023/02/17 07:31:32;;;;;;;14.67;13.37;;;12.90;99.90;;;;;;4992157;28;20420;-61
2023/02/17 07:33:59;;;;;;;13.77;12.50;;;12.80;99.90;;;;;;4992996;28;20415;-61
2023/02/17 07:36:24;;;;;;;13.37;11.20;;;12.80;99.90;;;;;;4992838;28;20415;-65
2023/02/17 07:38:50;;;;;;;13.47;12.17;;;12.70;99.90;;;;;;4992242;28;20891;-60
2023/02/17 07:41:19;;;;;;;15.40;14.10;;;12.80;99.90;;;;;;4992554;28;20293;-61
2023/02/17 07:43:45;;;;;;;12.80;11.50;;;12.80;99.90;;;;;;4991250;28;20549;-61
2023/02/17 07:46:11;;;;;;;11.60;10.40;;;12.80;99.90;;;;;;4992039;28;20441;-61
2023/02/17 07:48:37;;;;;;;14.07;12.87;;;12.80;99.90;;;;;;4990789;28;20439;-60
2023/02/17 07:51:11;;;;;;;13.97;12.87;;;12.80;99.90;;;;;;4989819;28;20442;-61
2023/02/17 07:53:37;;;;;;;13.70;12.50;;;12.80;99.90;;;;;;4991096;28;20440;-62
2023/02/17 07:56:09;;;;;;;14.40;13.20;;;12.80;99.90;;;;;;4977992;28;20825;-60
2023/02/17 07:58:39;;;;;;;13.60;12.33;;;12.80;99.90;;;;;;4980749;28;20780;-61
2023/02/17 08:01:10;;;;;;;14.60;13.33;;;12.70;99.90;;;;;;4992412;28;20498;-61
2023/02/17 08:03:36;;;;;;;11.03;10.00;;;12.60;99.90;;;;;;4992185;28;20885;-61
2023/02/17 08:06:02;;;;;;;10.90;9.90;;;12.70;99.90;;;;;;4992793;28;20773;-62
2023/02/17 08:14:21;;;;;;;10.40;9.43;;;12.60;99.90;;;;;;4912882;29;20480;-63
2023/02/17 08:16:46;;;;;;;10.93;9.93;;;12.70;99.90;;;;;;4942788;28;20758;-63
2023/02/17 08:19:12;;;;;;;11.33;10.33;;;13.00;99.90;;;;;;4986577;28;20928;-63
2023/02/17 08:21:38;;;;;;;11.80;10.87;;;13.20;99.90;;;;;;4989274;28;20214;-62
2023/02/17 08:24:04;;;;;;;11.73;10.73;;;13.40;99.90;;;;;;4975159;28;20217;-62
2023/02/17 08:26:29;;;;;;;10.93;9.83;;;13.60;99.90;;;;;;4992133;28;20182;-67
2023/02/17 08:28:55;;;;;;;12.63;11.30;;;13.80;99.90;;;;;;4993768;28;20280;-62
2023/02/17 08:31:24;;;;;;;11.03;10.03;;;13.90;99.90;;;;;;4995830;28;20533;-62
2023/02/17 08:33:50;;;;;;;11.27;10.23;;;14.00;99.90;;;;;;4983411;28;20234;-62
2023/02/17 08:36:16;;;;;;;11.30;10.17;;;14.20;99.90;;;;;;4961664;28;20796;-62
2023/02/17 08:38:47;;;;;;;11.03;10.03;;;14.30;99.90;;;;;;4972374;28;20449;-62
2023/02/17 08:41:28;;;;;;;10.73;9.73;;;14.30;99.90;;;;;;5001777;28;20987;-61
2023/02/17 08:43:54;;;;;;;10.73;9.93;;;14.40;99.90;;;;;;5007573;28;20434;-61
2023/02/17 08:46:21;;;;;;;10.13;9.23;;;14.50;99.90;;;;;;4995952;28;20413;-61
2023/02/17 08:48:47;;;;;;;11.30;10.30;;;14.40;99.90;;;;;;4995128;28;20415;-61
2023/02/17 08:51:26;;;;;;;10.20;9.20;;;14.50;99.90;;;;;;4995350;28;20506;-62
2023/02/17 08:53:54;;;;;;;10.87;9.97;;;14.50;99.90;;;;;;4995418;28;20502;-62
2023/02/17 08:56:21;;;;;;;11.93;10.93;;;14.70;99.90;;;;;;4994135;28;20771;-61
2023/02/17 08:58:47;;;;;;;10.10;9.30;;;14.60;99.90;;;;;;4994971;28;20895;-62
2023/02/17 09:01:13;;;;;;;11.67;10.00;;;14.60;99.90;;;;;;4995485;28;20480;-62
2023/02/17 09:03:40;;;;;;;10.80;9.93;;;14.60;99.90;;;;;;4994852;28;20911;-62
2023/02/17 09:06:07;;;;;;;12.40;11.20;;;14.70;99.90;;;;;;4995597;28;20222;-62
2023/02/17 09:08:32;;;;;;;12.30;11.10;;;14.70;99.90;;;;;;4995108;28;20841;-67
2023/02/17 09:10:59;;;;;;;16.43;14.63;;;14.80;99.90;;;;;;4990989;28;20539;-67
2023/02/17 09:13:25;;;;;;;18.07;16.17;;;14.70;99.90;;;;;;4976027;28;20165;-66
2023/02/17 09:15:52;;;;;;;13.23;11.93;;;14.70;99.90;;;;;;4955873;28;21138;-62
2023/02/17 09:18:22;;;;;;;15.10;13.57;;;14.70;99.90;;;;;;4954365;28;20520;-62
2023/02/17 09:20:48;;;;;;;9.73;8.93;;;14.80;99.90;;;;;;4974989;28;20469;-61
2023/02/17 09:23:14;;;;;;;15.87;13.10;;;14.90;99.90;;;;;;4973801;28;20506;-62
2023/02/17 09:25:41;;;;;;;11.00;9.93;;;15.10;99.90;;;;;;4973508;28;20447;-62
2023/02/17 09:28:06;;;;;;;10.33;9.43;;;15.20;99.90;;;;;;4974658;28;20544;-65
2023/02/17 09:30:32;;;;;;;10.27;9.23;;;15.20;99.90;;;;;;4975449;28;20981;-68
2023/02/17 09:32:58;;;;;;;9.20;8.47;;;15.20;99.90;;;;;;4975468;28;20228;-64
2023/02/17 09:35:25;;;;;;;8.87;8.17;;;15.00;99.90;;;;;;4975611;28;20217;-64
2023/02/17 09:37:50;;;;;;;9.00;8.20;;;14.90;99.90;;;;;;4957334;28;20848;-64
2023/02/17 09:40:36;;;;;;;9.00;8.20;;;14.70;99.90;;;;;;4974981;28;20515;-65
2023/02/17 09:43:02;;;;;;;8.10;7.50;;;14.60;99.90;;;;;;4975687;28;20182;-66
2023/02/17 09:45:34;;;;;;;8.60;7.90;;;14.50;99.90;;;;;;4972071;28;20438;-66
2023/02/17 09:48:05;;;;;;;9.40;8.60;;;14.30;99.90;;;;;;4957673;28;20460;-67
2023/02/17 09:50:33;;;;;;;8.27;7.57;;;14.40;99.90;;;;;;4974577;28;20797;-65
2023/02/17 09:53:09;;;;;;;8.33;7.63;;;14.40;99.90;;;;;;4974894;28;20479;-66
2023/02/17 09:55:46;;;;;;;52.70;38.97;;;14.30;99.90;;;;;;4970629;28;20431;-70
2023/02/17 09:58:19;;;;;;;132.83;94.83;;;14.20;99.90;;;;;;4975343;28;20410;-67
2023/02/17 10:00:49;;;;;;;14.40;13.03;;;14.20;99.90;;;;;;4957107;28;20499;-68
2023/02/17 10:03:40;;;;;;;8.30;7.60;;;14.20;99.90;;;;;;4958211;28;20502;-67
2023/02/17 10:06:14;;;;;;;8.47;7.77;;;14.20;99.90;;;;;;4965960;28;20770;-67
2023/02/17 10:09:08;;;;;;;8.07;7.37;;;14.20;99.90;;;;;;4973596;28;20435;-67
2023/02/17 10:11:56;;;;;;;8.27;7.57;;;14.20;99.90;;;;;;4943486;28;20475;-70
2023/02/17 10:14:32;;;;;;;9.00;8.10;;;14.20;99.90;;;;;;4994429;28;20414;-65
2023/02/17 10:17:09;;;;;;;7.43;6.83;;;14.20;99.90;;;;;;4991145;28;20446;-66
2023/02/17 10:19:50;;;;;;;9.10;8.30;;;14.20;99.90;;;;;;4974425;28;20819;-70
2023/02/17 10:22:21;;;;;;;10.40;9.60;;;14.30;99.90;;;;;;4991946;28;20862;-66
2023/02/17 10:24:47;;;;;;;8.37;7.77;;;14.30;99.90;;;;;;4993120;28;20423;-69
2023/02/17 10:27:28;;;;;;;8.30;7.50;;;14.30;99.90;;;;;;4992962;28;20549;-66
2023/02/17 10:30:22;;;;;;;10.40;9.47;;;14.40;99.90;;;;;;4992713;28;20187;-63
2023/02/17 10:33:09;;;;;;;8.20;7.60;;;14.40;99.90;;;;;;4993169;28;20506;-63
2023/02/17 10:35:51;;;;;;;7.90;7.30;;;14.40;99.90;;;;;;4993523;28;20399;-66
2023/02/17 10:38:28;;;;;;;10.10;9.40;;;14.40;99.90;;;;;;4992980;28;20482;-63
2023/02/17 10:40:54;;;;;;;7.53;6.93;;;14.40;99.90;;;;;;4992253;28;20482;-64
2023/02/17 10:43:25;;;;;;;8.50;7.77;;;14.40;99.90;;;;;;4993814;28;20411;-63
2023/02/17 10:45:52;;;;;;;12.90;9.47;;;14.40;99.90;;;;;;4993078;28;20399;-64
2023/02/17 10:48:31;;;;;;;128.43;83.80;;;14.40;99.90;;;;;;4976347;28;20441;-63
2023/02/17 10:50:59;;;;;;;12.63;11.40;;;14.40;99.90;;;;;;4991390;28;20933;-64
2023/02/17 10:53:30;;;;;;;9.90;8.90;;;14.50;99.90;;;;;;4992475;28;20448;-68
2023/02/17 10:56:18;;;;;;;8.40;7.80;;;14.50;99.90;;;;;;4992000;28;20547;-67
2023/02/17 10:59:01;;;;;;;8.13;7.17;;;14.60;99.90;;;;;;4973576;28;20510;-68
2023/02/17 11:01:27;;;;;;;7.50;6.90;;;14.50;99.90;;;;;;4980098;28;20462;-69
2023/02/17 11:04:05;;;;;;;7.57;6.87;;;14.50;99.90;;;;;;4992817;28;20482;-70
2023/02/17 11:06:32;;;;;;;6.57;6.03;;;14.50;99.90;;;;;;4993397;28;20535;-66
2023/02/17 11:09:03;;;;;;;7.47;6.77;;;14.40;99.90;;;;;;4992112;28;20481;-66
2023/02/17 11:11:33;;;;;;;6.17;5.57;;;14.50;99.90;;;;;;4992836;28;20563;-63
2023/02/17 11:14:22;;;;;;;6.60;6.00;;;14.50;99.90;;;;;;4986434;28;20628;-66
2023/02/17 11:17:01;;;;;;;6.73;6.13;;;14.50;99.90;;;;;;4973649;28;20417;-67
2023/02/17 11:19:34;;;;;;;6.00;5.40;;;14.50;99.90;;;;;;4993551;28;20411;-66
2023/02/17 11:22:03;;;;;;;6.67;5.80;;;14.50;99.90;;;;;;4974779;28;20538;-66
2023/02/17 11:24:32;;;;;;;6.40;5.80;;;14.40;99.90;;;;;;4993204;28;20419;-66
2023/02/17 11:27:01;;;;;;;6.50;5.90;;;14.40;99.90;;;;;;4992109;28;20392;-66
2023/02/17 11:29:28;;;;;;;8.60;5.50;;;14.40;99.90;;;;;;4993328;28;20424;-70
2023/02/17 11:32:07;;;;;;;6.70;5.97;;;14.50;99.90;;;;;;4992473;28;20442;-66
2023/02/17 11:34:35;;;;;;;6.10;5.50;;;14.40;99.90;;;;;;4975801;28;20767;-66
2023/02/17 11:37:08;;;;;;;6.10;5.27;;;14.50;99.90;;;;;;4992447;28;21078;-66
2023/02/17 11:39:43;;;;;;;97.77;65.77;;;14.50;99.90;;;;;;4992738;28;20515;-66
2023/02/17 11:42:15;;;;;;;17.30;15.43;;;14.60;99.90;;;;;;4993225;28;20530;-66
2023/02/17 11:44:41;;;;;;;5.67;5.13;;;14.70;99.90;;;;;;4992247;28;20423;-70
2023/02/17 11:47:36;;;;;;;7.13;5.70;;;14.70;99.90;;;;;;4992336;28;20483;-66
2023/02/17 11:50:25;;;;;;;6.17;5.70;;;14.80;99.90;;;;;;4979115;28;20462;-66
2023/02/17 11:53:22;;;;;;;5.93;5.43;;;14.90;99.90;;;;;;4992273;28;20511;-67
2023/02/17 11:56:06;;;;;;;6.00;5.50;;;14.90;99.90;;;;;;4992110;28;20413;-68
2023/02/17 11:58:50;;;;;;;6.83;6.23;;;14.90;99.90;;;;;;4992580;28;20396;-68
2023/02/17 12:01:47;;;;;;;5.90;5.40;;;15.00;99.90;;;;;;4992697;28;20448;-68
2023/02/17 12:04:31;;;;;;;7.40;5.43;;;15.00;99.90;;;;;;4997019;28;20394;-68
2023/02/17 12:07:30;;;;;;;6.07;5.57;;;15.10;99.90;;;;;;4996490;28;20750;-68
2023/02/17 12:10:17;;;;;;;5.30;4.90;;;15.10;99.90;;;;;;4995719;28;20879;-68
2023/02/17 12:13:02;;;;;;;5.30;4.87;;;15.20;99.90;;;;;;4995735;28;20475;-68
2023/02/17 12:15:58;;;;;;;5.80;5.30;;;15.20;99.90;;;;;;4997015;28;20580;-68
2023/02/17 12:18:50;;;;;;;5.80;5.40;;;15.30;99.90;;;;;;4996904;28;20433;-68
2023/02/17 12:21:57;;;;;;;6.63;6.17;;;15.40;99.90;;;;;;4995936;28;20520;-68
2023/02/17 12:24:46;;;;;;;5.80;5.40;;;15.40;99.90;;;;;;4996303;28;20444;-68
2023/02/17 12:27:40;;;;;;;6.43;5.83;;;15.30;99.90;;;;;;4979484;28;20435;-68
2023/02/17 12:30:23;;;;;;;5.67;5.23;;;15.30;99.90;;;;;;4996057;28;20408;-68
2023/02/17 12:33:07;;;;;;;5.57;5.17;;;15.20;99.90;;;;;;4996081;28;20769;-68
2023/02/17 12:35:44;;;;;;;6.57;5.50;;;15.20;99.90;;;;;;4995479;28;20408;-68
2023/02/17 12:38:15;;;;;;;5.40;5.00;;;15.20;99.90;;;;;;4996536;28;20411;-68
2023/02/17 12:41:07;;;;;;;5.40;4.90;;;15.20;99.90;;;;;;4996431;28;20488;-68
2023/02/17 12:43:45;;;;;;;5.60;5.10;;;15.10;99.90;;;;;;4996249;28;20414;-68
2023/02/17 12:46:16;;;;;;;5.80;4.67;;;15.10;99.90;;;;;;4996466;28;20409;-68
2023/02/17 12:48:48;;;;;;;5.07;4.30;;;15.10;99.90;;;;;;4996373;28;20397;-68
2023/02/17 12:51:19;;;;;;;5.23;4.83;;;15.20;99.90;;;;;;4995562;28;20451;-68
2023/02/17 12:53:57;;;;;;;6.90;5.70;;;15.20;99.90;;;;;;4995731;28;21048;-68